De Havilland DHC-8-402 Dash 8 from Air Berlin at Dusseldorf.
 Regi:D-ABQP  LARGER
 MSN Year:4137 2006
 Date of picture:2016-09-13 09:24
 Position:M
 Flight: DEP NEU AB6786 Nurnberg Albrecht Durer Germany
 Logs: 8:30 PM AB6786 Nurnberg (NUE) Air Berlin DH8D (D-ABQP) Departed 8:30 PM
3C4A30 BER911H D-ABQP DH8D 17100 23000 13/09/2016 09:35:29 SBS log from Offenbach near Frankfurt
2016/09/13 08:55 BER911H BER911H D-ABQP a/c registered in Germany Air Berlin DH8D
 NotamEDDL A3271/16 International 06/20/2016 2200 PERM FOR ALL TURBOPROP ACFT, ENGINE TEST RUNS ON THE APRON AND THE NOISE REDUCTION HANGAR (HANGAR 9) NOT ALLOWED, DUE TO ENVIRONMENT REGULATIONS. DAILY 2300 (2200) - 0400 (0300).
 MetarSA 13/09/2016 09:20-> METAR EDDL 130920Z 15008KT 110V180 CAVOK 28/17 Q1015 NOSIG=
 Hits: 18 ID: 2642

Debriefing: Photographed movements of Airports in NW-Europe.
The images of our site attendant is in authorisation from Queen of Sky.
Copying of images of this site have been prohibited in which manner without the authorisation of the photographer.
In behalf of the crew :"Thank you visiting us" - Contact
Factsheets De Havilland, DHC-8-402 Dash 8, Air Berlin, made by De Plane! © 2006 - 2022 All rights reserved


.